Main page
METAR-TAF:

METAR-TAF

Airports :

Salak Airport

Maroua, Cameroon

latitude: 10-27N, longitude: 014-15E, elevation: 423 m

Current weather observation

The report was made 12 hours and 31 minutes ago, at 16:00 UTC
Wind 3 kt from the East/Northeast
Temperature 32°C
Humidity 52%
Pressure 1011 hPa
Visibility 10 km or more
Few clouds at a height of 3000 ft
Few clouds at a height of 3500 ft, Cumulonimbus.

METAR: FKKL 251600Z 07003KT 9999 FEW030 FEW035CB 32/21 Q1011 RETS

Time: 05:31 (04:31 UTC)

Forecast

The report was made 23 hours and 31 minutes ago, at 05:00 UTC
Forecast valid from 25 at 06 UTC to 25 at 18 UTC
Wind 8 kt from the East/Northeast
Visibility 10 km or more
Few clouds at a height of 3500 ft

TAF: FKKL 250500Z 2506/2518 07008KT 9999 FEW035

Weather observations and forecasts of more than 4000 airports (METAR and TAF reports).

The available stations are represented by yellow and red dots on the map.

Hover mouse over dot to see the name of the station.

Then click to see weather observations and forecasts.

To change the map : click on the green buttons with a black cross to zoom in, on the green button with a dash to zoom out, or on the green arrows for adjacent maps.


METAR-TAF: